sensor_id;sensor_type;location;lat;lon;timestamp;P1;durP1;ratioP1;P2;durP2;ratioP2
5343;SDS011;2694;48.954;8.928;2023-07-13T00:01:44;3.78;;;1.00;;
5343;SDS011;2694;48.954;8.928;2023-07-13T00:04:16;3.38;;;0.80;;
5343;SDS011;2694;48.954;8.928;2023-07-13T00:06:43;2.40;;;0.70;;
5343;SDS011;2694;48.954;8.928;2023-07-13T00:09:11;1.60;;;0.73;;
5343;SDS011;2694;48.954;8.928;2023-07-13T00:11:39;4.43;;;1.30;;
5343;SDS011;2694;48.954;8.928;2023-07-13T00:14:06;3.03;;;0.90;;
5343;SDS011;2694;48.954;8.928;2023-07-13T00:16:34;2.10;;;0.70;;
5343;SDS011;2694;48.954;8.928;2023-07-13T00:19:01;2.28;;;0.90;;
5343;SDS011;2694;48.954;8.928;2023-07-13T00:21:30;2.90;;;0.90;;
5343;SDS011;2694;48.954;8.928;2023-07-13T00:23:57;3.20;;;0.70;;
5343;SDS011;2694;48.954;8.928;2023-07-13T00:26:25;3.92;;;1.05;;
5343;SDS011;2694;48.954;8.928;2023-07-13T00:28:52;2.28;;;0.73;;
5343;SDS011;2694;48.954;8.928;2023-07-13T00:31:19;1.52;;;0.70;;
5343;SDS011;2694;48.954;8.928;2023-07-13T00:33:46;3.93;;;1.20;;
5343;SDS011;2694;48.954;8.928;2023-07-13T00:36:14;4.13;;;0.90;;
5343;SDS011;2694;48.954;8.928;2023-07-13T00:38:42;3.50;;;1.00;;
5343;SDS011;2694;48.954;8.928;2023-07-13T00:41:10;2.60;;;0.70;;
5343;SDS011;2694;48.954;8.928;2023-07-13T00:43:37;4.80;;;0.70;;
5343;SDS011;2694;48.954;8.928;2023-07-13T00:46:15;2.90;;;0.73;;
5343;SDS011;2694;48.954;8.928;2023-07-13T00:48:48;6.80;;;0.90;;
5343;SDS011;2694;48.954;8.928;2023-07-13T00:51:17;4.15;;;0.70;;
5343;SDS011;2694;48.954;8.928;2023-07-13T00:53:49;2.42;;;0.80;;
5343;SDS011;2694;48.954;8.928;2023-07-13T00:56:19;2.42;;;1.10;;
5343;SDS011;2694;48.954;8.928;2023-07-13T00:58:46;4.43;;;0.77;;
5343;SDS011;2694;48.954;8.928;2023-07-13T01:01:13;1.70;;;0.68;;
5343;SDS011;2694;48.954;8.928;2023-07-13T01:03:40;4.47;;;0.68;;
5343;SDS011;2694;48.954;8.928;2023-07-13T01:06:07;6.10;;;0.70;;
5343;SDS011;2694;48.954;8.928;2023-07-13T01:08:35;3.80;;;0.80;;
5343;SDS011;2694;48.954;8.928;2023-07-13T01:11:03;1.88;;;0.70;;
5343;SDS011;2694;48.954;8.928;2023-07-13T01:13:30;3.97;;;0.90;;
5343;SDS011;2694;48.954;8.928;2023-07-13T01:15:58;3.95;;;1.30;;
5343;SDS011;2694;48.954;8.928;2023-07-13T01:18:30;2.23;;;0.93;;
5343;SDS011;2694;48.954;8.928;2023-07-13T01:21:00;6.15;;;1.30;;
5343;SDS011;2694;48.954;8.928;2023-07-13T01:23:29;2.90;;;0.80;;
5343;SDS011;2694;48.954;8.928;2023-07-13T01:26:00;4.00;;;1.00;;
5343;SDS011;2694;48.954;8.928;2023-07-13T01:28:28;2.78;;;0.90;;
5343;SDS011;2694;48.954;8.928;2023-07-13T01:30:56;4.13;;;1.20;;
5343;SDS011;2694;48.954;8.928;2023-07-13T01:33:24;4.13;;;1.10;;
5343;SDS011;2694;48.954;8.928;2023-07-13T01:35:51;2.35;;;0.95;;
5343;SDS011;2694;48.954;8.928;2023-07-13T01:38:20;3.90;;;1.20;;
5343;SDS011;2694;48.954;8.928;2023-07-13T01:40:49;2.90;;;1.30;;
5343;SDS011;2694;48.954;8.928;2023-07-13T01:43:16;2.00;;;1.00;;
5343;SDS011;2694;48.954;8.928;2023-07-13T01:45:44;3.92;;;1.00;;
5343;SDS011;2694;48.954;8.928;2023-07-13T01:48:11;3.88;;;1.40;;
5343;SDS011;2694;48.954;8.928;2023-07-13T01:50:39;3.78;;;1.10;;
5343;SDS011;2694;48.954;8.928;2023-07-13T01:53:05;4.25;;;1.40;;
5343;SDS011;2694;48.954;8.928;2023-07-13T01:55:34;2.78;;;1.23;;
5343;SDS011;2694;48.954;8.928;2023-07-13T01:58:02;2.83;;;1.23;;
5343;SDS011;2694;48.954;8.928;2023-07-13T02:00:29;5.43;;;1.23;;
5343;SDS011;2694;48.954;8.928;2023-07-13T02:02:56;3.10;;;1.17;;
5343;SDS011;2694;48.954;8.928;2023-07-13T02:05:23;2.63;;;1.00;;
5343;SDS011;2694;48.954;8.928;2023-07-13T02:07:50;6.50;;;1.30;;
5343;SDS011;2694;48.954;8.928;2023-07-13T02:10:18;2.58;;;0.73;;
5343;SDS011;2694;48.954;8.928;2023-07-13T02:12:48;6.00;;;1.40;;
5343;SDS011;2694;48.954;8.928;2023-07-13T02:15:16;4.18;;;1.10;;
5343;SDS011;2694;48.954;8.928;2023-07-13T02:17:43;2.55;;;0.90;;
5343;SDS011;2694;48.954;8.928;2023-07-13T02:20:10;1.92;;;0.90;;
5343;SDS011;2694;48.954;8.928;2023-07-13T02:22:37;4.65;;;1.17;;
5343;SDS011;2694;48.954;8.928;2023-07-13T02:25:04;3.35;;;0.70;;
5343;SDS011;2694;48.954;8.928;2023-07-13T02:27:32;6.03;;;1.23;;
5343;SDS011;2694;48.954;8.928;2023-07-13T02:30:00;2.83;;;1.00;;
5343;SDS011;2694;48.954;8.928;2023-07-13T02:32:28;2.50;;;1.10;;
5343;SDS011;2694;48.954;8.928;2023-07-13T02:34:55;3.70;;;1.10;;
5343;SDS011;2694;48.954;8.928;2023-07-13T02:37:22;4.57;;;1.00;;
5343;SDS011;2694;48.954;8.928;2023-07-13T02:39:48;7.13;;;1.20;;
5343;SDS011;2694;48.954;8.928;2023-07-13T02:42:15;4.20;;;1.30;;
5343;SDS011;2694;48.954;8.928;2023-07-13T02:44:42;5.67;;;1.10;;
5343;SDS011;2694;48.954;8.928;2023-07-13T02:47:11;2.33;;;1.20;;
5343;SDS011;2694;48.954;8.928;2023-07-13T02:49:38;4.28;;;1.40;;
5343;SDS011;2694;48.954;8.928;2023-07-13T02:52:05;2.72;;;1.20;;
5343;SDS011;2694;48.954;8.928;2023-07-13T02:54:32;2.30;;;1.30;;
5343;SDS011;2694;48.954;8.928;2023-07-13T02:56:59;3.40;;;1.50;;
5343;SDS011;2694;48.954;8.928;2023-07-13T02:59:26;3.65;;;1.20;;
5343;SDS011;2694;48.954;8.928;2023-07-13T03:01:53;5.75;;;1.10;;
5343;SDS011;2694;48.954;8.928;2023-07-13T03:04:22;3.28;;;1.10;;
5343;SDS011;2694;48.954;8.928;2023-07-13T03:06:49;3.72;;;1.15;;
5343;SDS011;2694;48.954;8.928;2023-07-13T03:09:16;4.70;;;1.30;;
5343;SDS011;2694;48.954;8.928;2023-07-13T03:11:43;2.17;;;1.05;;
5343;SDS011;2694;48.954;8.928;2023-07-13T03:14:10;4.15;;;1.10;;
5343;SDS011;2694;48.954;8.928;2023-07-13T03:16:37;2.47;;;1.20;;
5343;SDS011;2694;48.954;8.928;2023-07-13T03:19:04;4.20;;;1.58;;
5343;SDS011;2694;48.954;8.928;2023-07-13T03:21:33;3.20;;;1.13;;
5343;SDS011;2694;48.954;8.928;2023-07-13T03:24:00;3.80;;;1.10;;
5343;SDS011;2694;48.954;8.928;2023-07-13T03:26:26;2.67;;;1.00;;
5343;SDS011;2694;48.954;8.928;2023-07-13T03:28:53;3.90;;;1.00;;
5343;SDS011;2694;48.954;8.928;2023-07-13T03:31:21;3.80;;;1.20;;
5343;SDS011;2694;48.954;8.928;2023-07-13T03:33:51;7.18;;;1.40;;
5343;SDS011;2694;48.954;8.928;2023-07-13T03:36:19;3.10;;;1.20;;
5343;SDS011;2694;48.954;8.928;2023-07-13T03:38:49;3.42;;;1.15;;
5343;SDS011;2694;48.954;8.928;2023-07-13T03:41:17;2.37;;;1.00;;
5343;SDS011;2694;48.954;8.928;2023-07-13T03:43:44;4.50;;;1.20;;
5343;SDS011;2694;48.954;8.928;2023-07-13T03:46:13;4.43;;;1.20;;
5343;SDS011;2694;48.954;8.928;2023-07-13T03:48:40;4.85;;;1.10;;
5343;SDS011;2694;48.954;8.928;2023-07-13T03:51:08;6.13;;;1.50;;
5343;SDS011;2694;48.954;8.928;2023-07-13T03:53:37;5.00;;;1.60;;
5343;SDS011;2694;48.954;8.928;2023-07-13T03:56:07;5.18;;;1.90;;
5343;SDS011;2694;48.954;8.928;2023-07-13T03:58:35;3.50;;;1.60;;
5343;SDS011;2694;48.954;8.928;2023-07-13T04:01:04;2.10;;;1.02;;
5343;SDS011;2694;48.954;8.928;2023-07-13T04:03:33;4.70;;;1.40;;
5343;SDS011;2694;48.954;8.928;2023-07-13T04:06:00;3.58;;;1.20;;
5343;SDS011;2694;48.954;8.928;2023-07-13T04:08:30;3.10;;;1.20;;
5343;SDS011;2694;48.954;8.928;2023-07-13T04:10:59;3.53;;;1.33;;
5343;SDS011;2694;48.954;8.928;2023-07-13T04:13:28;4.25;;;1.30;;
5343;SDS011;2694;48.954;8.928;2023-07-13T04:15:55;3.67;;;1.45;;
5343;SDS011;2694;48.954;8.928;2023-07-13T04:18:22;2.97;;;1.00;;
5343;SDS011;2694;48.954;8.928;2023-07-13T04:20:50;3.03;;;1.30;;
5343;SDS011;2694;48.954;8.928;2023-07-13T04:23:17;3.55;;;1.00;;
5343;SDS011;2694;48.954;8.928;2023-07-13T04:25:44;2.95;;;1.20;;
5343;SDS011;2694;48.954;8.928;2023-07-13T04:28:14;2.08;;;1.42;;
5343;SDS011;2694;48.954;8.928;2023-07-13T04:30:44;3.03;;;1.02;;
5343;SDS011;2694;48.954;8.928;2023-07-13T04:33:11;3.38;;;1.10;;
5343;SDS011;2694;48.954;8.928;2023-07-13T04:35:38;5.40;;;1.38;;
5343;SDS011;2694;48.954;8.928;2023-07-13T04:38:05;2.95;;;0.93;;
5343;SDS011;2694;48.954;8.928;2023-07-13T04:40:32;6.68;;;1.40;;
5343;SDS011;2694;48.954;8.928;2023-07-13T04:42:59;2.10;;;0.90;;
5343;SDS011;2694;48.954;8.928;2023-07-13T04:45:26;3.63;;;1.33;;
5343;SDS011;2694;48.954;8.928;2023-07-13T04:47:55;5.57;;;1.38;;
5343;SDS011;2694;48.954;8.928;2023-07-13T04:50:21;3.05;;;1.13;;
5343;SDS011;2694;48.954;8.928;2023-07-13T04:52:49;3.65;;;1.27;;
5343;SDS011;2694;48.954;8.928;2023-07-13T04:55:16;6.22;;;1.30;;
5343;SDS011;2694;48.954;8.928;2023-07-13T04:57:44;2.78;;;1.30;;
5343;SDS011;2694;48.954;8.928;2023-07-13T05:00:11;3.25;;;1.40;;
5343;SDS011;2694;48.954;8.928;2023-07-13T05:02:42;2.90;;;1.13;;
5343;SDS011;2694;48.954;8.928;2023-07-13T05:05:14;3.15;;;1.30;;
5343;SDS011;2694;48.954;8.928;2023-07-13T05:07:41;3.25;;;1.40;;
5343;SDS011;2694;48.954;8.928;2023-07-13T05:10:08;2.85;;;1.25;;
5343;SDS011;2694;48.954;8.928;2023-07-13T05:12:36;2.35;;;1.10;;
5343;SDS011;2694;48.954;8.928;2023-07-13T05:15:03;4.15;;;1.30;;
5343;SDS011;2694;48.954;8.928;2023-07-13T05:17:31;5.50;;;1.60;;
5343;SDS011;2694;48.954;8.928;2023-07-13T05:19:58;2.42;;;1.23;;
5343;SDS011;2694;48.954;8.928;2023-07-13T05:22:26;4.18;;;1.30;;
5343;SDS011;2694;48.954;8.928;2023-07-13T05:24:53;4.22;;;1.23;;
5343;SDS011;2694;48.954;8.928;2023-07-13T05:27:20;5.63;;;1.60;;
5343;SDS011;2694;48.954;8.928;2023-07-13T05:29:47;4.05;;;1.77;;
5343;SDS011;2694;48.954;8.928;2023-07-13T05:32:14;4.07;;;1.58;;
5343;SDS011;2694;48.954;8.928;2023-07-13T05:34:41;5.28;;;1.95;;
5343;SDS011;2694;48.954;8.928;2023-07-13T05:37:08;2.90;;;1.50;;
5343;SDS011;2694;48.954;8.928;2023-07-13T05:39:37;4.45;;;1.20;;
5343;SDS011;2694;48.954;8.928;2023-07-13T05:42:05;5.07;;;1.50;;
5343;SDS011;2694;48.954;8.928;2023-07-13T05:44:32;2.55;;;1.30;;
5343;SDS011;2694;48.954;8.928;2023-07-13T05:46:59;4.80;;;1.48;;
5343;SDS011;2694;48.954;8.928;2023-07-13T05:49:26;5.22;;;1.80;;
5343;SDS011;2694;48.954;8.928;2023-07-13T05:51:53;4.60;;;1.77;;
5343;SDS011;2694;48.954;8.928;2023-07-13T05:54:20;6.60;;;1.60;;
5343;SDS011;2694;48.954;8.928;2023-07-13T05:56:48;2.95;;;1.35;;
5343;SDS011;2694;48.954;8.928;2023-07-13T05:59:15;3.25;;;1.40;;
5343;SDS011;2694;48.954;8.928;2023-07-13T06:01:43;5.50;;;1.25;;
5343;SDS011;2694;48.954;8.928;2023-07-13T06:04:10;7.13;;;1.83;;
5343;SDS011;2694;48.954;8.928;2023-07-13T06:06:37;7.00;;;1.75;;
5343;SDS011;2694;48.954;8.928;2023-07-13T06:09:04;4.38;;;1.90;;
5343;SDS011;2694;48.954;8.928;2023-07-13T06:11:31;5.72;;;1.90;;
5343;SDS011;2694;48.954;8.928;2023-07-13T06:13:59;5.20;;;1.90;;
5343;SDS011;2694;48.954;8.928;2023-07-13T06:16:26;3.63;;;1.70;;
5343;SDS011;2694;48.954;8.928;2023-07-13T06:18:53;5.50;;;1.80;;
5343;SDS011;2694;48.954;8.928;2023-07-13T06:21:21;5.82;;;1.70;;
5343;SDS011;2694;48.954;8.928;2023-07-13T06:23:49;3.20;;;1.60;;
5343;SDS011;2694;48.954;8.928;2023-07-13T06:26:17;5.47;;;1.73;;
5343;SDS011;2694;48.954;8.928;2023-07-13T06:28:44;4.72;;;1.73;;
5343;SDS011;2694;48.954;8.928;2023-07-13T06:31:13;4.00;;;1.80;;
5343;SDS011;2694;48.954;8.928;2023-07-13T06:33:41;6.23;;;2.00;;
5343;SDS011;2694;48.954;8.928;2023-07-13T06:36:08;3.88;;;1.90;;
5343;SDS011;2694;48.954;8.928;2023-07-13T06:38:36;7.45;;;2.03;;
5343;SDS011;2694;48.954;8.928;2023-07-13T06:41:03;7.00;;;1.92;;
5343;SDS011;2694;48.954;8.928;2023-07-13T06:43:31;6.10;;;1.50;;
5343;SDS011;2694;48.954;8.928;2023-07-13T06:45:58;6.40;;;1.65;;
5343;SDS011;2694;48.954;8.928;2023-07-13T06:48:27;4.32;;;1.67;;
5343;SDS011;2694;48.954;8.928;2023-07-13T06:50:54;5.15;;;1.27;;
5343;SDS011;2694;48.954;8.928;2023-07-13T06:53:21;4.35;;;1.40;;
5343;SDS011;2694;48.954;8.928;2023-07-13T06:55:49;5.53;;;1.25;;
5343;SDS011;2694;48.954;8.928;2023-07-13T06:58:17;6.00;;;1.15;;
5343;SDS011;2694;48.954;8.928;2023-07-13T07:00:44;2.72;;;1.20;;
5343;SDS011;2694;48.954;8.928;2023-07-13T07:03:12;5.68;;;1.40;;
5343;SDS011;2694;48.954;8.928;2023-07-13T07:05:41;3.00;;;1.10;;
5343;SDS011;2694;48.954;8.928;2023-07-13T07:08:08;2.38;;;0.82;;
5343;SDS011;2694;48.954;8.928;2023-07-13T07:10:35;3.45;;;0.98;;
5343;SDS011;2694;48.954;8.928;2023-07-13T07:13:02;2.78;;;1.15;;
5343;SDS011;2694;48.954;8.928;2023-07-13T07:15:30;6.30;;;1.10;;
5343;SDS011;2694;48.954;8.928;2023-07-13T07:17:57;3.60;;;1.50;;
5343;SDS011;2694;48.954;8.928;2023-07-13T07:20:24;2.72;;;1.15;;
5343;SDS011;2694;48.954;8.928;2023-07-13T07:22:53;4.25;;;0.90;;
5343;SDS011;2694;48.954;8.928;2023-07-13T07:25:20;4.37;;;1.00;;
5343;SDS011;2694;48.954;8.928;2023-07-13T07:27:47;2.40;;;1.10;;
5343;SDS011;2694;48.954;8.928;2023-07-13T07:30:14;4.40;;;1.10;;
5343;SDS011;2694;48.954;8.928;2023-07-13T07:32:41;4.93;;;1.00;;
5343;SDS011;2694;48.954;8.928;2023-07-13T07:35:08;8.48;;;1.40;;
5343;SDS011;2694;48.954;8.928;2023-07-13T07:37:35;3.10;;;0.90;;
5343;SDS011;2694;48.954;8.928;2023-07-13T07:40:04;4.25;;;1.00;;
5343;SDS011;2694;48.954;8.928;2023-07-13T07:42:33;8.02;;;1.10;;
5343;SDS011;2694;48.954;8.928;2023-07-13T07:45:00;6.88;;;1.25;;
5343;SDS011;2694;48.954;8.928;2023-07-13T07:47:27;4.18;;;0.90;;
5343;SDS011;2694;48.954;8.928;2023-07-13T07:49:54;4.25;;;0.90;;
5343;SDS011;2694;48.954;8.928;2023-07-13T07:52:20;3.80;;;0.88;;
5343;SDS011;2694;48.954;8.928;2023-07-13T07:54:47;1.90;;;0.70;;
5343;SDS011;2694;48.954;8.928;2023-07-13T07:57:16;2.47;;;0.93;;
5343;SDS011;2694;48.954;8.928;2023-07-13T07:59:43;2.97;;;0.82;;
5343;SDS011;2694;48.954;8.928;2023-07-13T08:02:10;3.22;;;1.40;;
5343;SDS011;2694;48.954;8.928;2023-07-13T08:04:37;5.20;;;1.30;;
5343;SDS011;2694;48.954;8.928;2023-07-13T08:07:04;2.00;;;0.80;;
5343;SDS011;2694;48.954;8.928;2023-07-13T08:09:31;2.55;;;0.80;;
5343;SDS011;2694;48.954;8.928;2023-07-13T08:11:58;7.13;;;1.00;;
5343;SDS011;2694;48.954;8.928;2023-07-13T08:14:27;3.72;;;1.10;;
5343;SDS011;2694;48.954;8.928;2023-07-13T08:16:54;2.55;;;1.10;;
5343;SDS011;2694;48.954;8.928;2023-07-13T08:19:21;5.75;;;0.88;;
5343;SDS011;2694;48.954;8.928;2023-07-13T08:21:48;2.60;;;0.80;;
5343;SDS011;2694;48.954;8.928;2023-07-13T08:24:15;3.90;;;0.80;;
5343;SDS011;2694;48.954;8.928;2023-07-13T08:26:43;2.10;;;0.73;;
5343;SDS011;2694;48.954;8.928;2023-07-13T08:29:11;2.93;;;0.87;;
5343;SDS011;2694;48.954;8.928;2023-07-13T08:31:39;3.77;;;0.90;;
5343;SDS011;2694;48.954;8.928;2023-07-13T08:34:06;4.78;;;0.90;;
5343;SDS011;2694;48.954;8.928;2023-07-13T08:36:33;5.30;;;1.40;;
5343;SDS011;2694;48.954;8.928;2023-07-13T08:39:00;3.92;;;0.90;;
5343;SDS011;2694;48.954;8.928;2023-07-13T08:41:27;2.80;;;1.00;;
5343;SDS011;2694;48.954;8.928;2023-07-13T08:43:56;2.00;;;0.80;;
5343;SDS011;2694;48.954;8.928;2023-07-13T08:46:25;3.00;;;0.80;;
5343;SDS011;2694;48.954;8.928;2023-07-13T08:49:00;3.05;;;1.10;;
5343;SDS011;2694;48.954;8.928;2023-07-13T08:51:31;2.97;;;0.80;;
5343;SDS011;2694;48.954;8.928;2023-07-13T08:54:05;7.10;;;1.00;;
5343;SDS011;2694;48.954;8.928;2023-07-13T08:56:43;3.10;;;0.98;;
5343;SDS011;2694;48.954;8.928;2023-07-13T08:59:13;3.28;;;0.80;;
5343;SDS011;2694;48.954;8.928;2023-07-13T09:01:49;2.53;;;0.63;;
5343;SDS011;2694;48.954;8.928;2023-07-13T09:04:25;7.32;;;1.00;;
5343;SDS011;2694;48.954;8.928;2023-07-13T09:06:59;4.80;;;0.87;;
5343;SDS011;2694;48.954;8.928;2023-07-13T09:09:33;2.28;;;0.80;;
5343;SDS011;2694;48.954;8.928;2023-07-13T09:12:09;4.30;;;0.90;;
5343;SDS011;2694;48.954;8.928;2023-07-13T09:14:42;7.28;;;1.23;;
5343;SDS011;2694;48.954;8.928;2023-07-13T09:17:14;3.10;;;0.90;;
5343;SDS011;2694;48.954;8.928;2023-07-13T09:19:48;3.13;;;0.80;;
5343;SDS011;2694;48.954;8.928;2023-07-13T09:22:20;5.03;;;0.90;;
5343;SDS011;2694;48.954;8.928;2023-07-13T09:24:52;4.32;;;0.90;;
5343;SDS011;2694;48.954;8.928;2023-07-13T09:27:27;4.80;;;0.93;;
5343;SDS011;2694;48.954;8.928;2023-07-13T09:29:59;2.55;;;0.80;;
5343;SDS011;2694;48.954;8.928;2023-07-13T09:32:34;4.50;;;0.85;;
5343;SDS011;2694;48.954;8.928;2023-07-13T09:35:07;4.40;;;1.10;;
5343;SDS011;2694;48.954;8.928;2023-07-13T09:37:37;3.17;;;0.80;;
5343;SDS011;2694;48.954;8.928;2023-07-13T09:40:08;1.80;;;0.60;;
5343;SDS011;2694;48.954;8.928;2023-07-13T09:42:44;3.63;;;0.97;;
5343;SDS011;2694;48.954;8.928;2023-07-13T09:45:11;2.28;;;0.85;;
5343;SDS011;2694;48.954;8.928;2023-07-13T09:47:53;3.42;;;0.90;;
5343;SDS011;2694;48.954;8.928;2023-07-13T09:50:27;2.70;;;0.80;;
5343;SDS011;2694;48.954;8.928;2023-07-13T09:52:55;4.00;;;1.17;;
5343;SDS011;2694;48.954;8.928;2023-07-13T09:55:25;4.60;;;0.90;;
5343;SDS011;2694;48.954;8.928;2023-07-13T09:57:55;4.32;;;0.80;;
5343;SDS011;2694;48.954;8.928;2023-07-13T10:00:23;3.33;;;0.88;;
5343;SDS011;2694;48.954;8.928;2023-07-13T10:02:59;3.17;;;0.63;;
5343;SDS011;2694;48.954;8.928;2023-07-13T10:05:30;2.67;;;0.65;;
5343;SDS011;2694;48.954;8.928;2023-07-13T10:08:04;3.33;;;0.85;;
5343;SDS011;2694;48.954;8.928;2023-07-13T10:10:32;3.85;;;1.25;;
5343;SDS011;2694;48.954;8.928;2023-07-13T10:13:01;4.80;;;1.00;;
5343;SDS011;2694;48.954;8.928;2023-07-13T10:15:31;3.75;;;1.05;;
5343;SDS011;2694;48.954;8.928;2023-07-13T10:17:59;3.58;;;0.68;;
5343;SDS011;2694;48.954;8.928;2023-07-13T10:20:27;3.17;;;0.90;;
5343;SDS011;2694;48.954;8.928;2023-07-13T10:22:57;4.90;;;1.10;;
5343;SDS011;2694;48.954;8.928;2023-07-13T10:25:26;6.20;;;0.60;;
5343;SDS011;2694;48.954;8.928;2023-07-13T10:27:58;2.42;;;0.90;;
5343;SDS011;2694;48.954;8.928;2023-07-13T10:30:31;2.60;;;0.80;;
5343;SDS011;2694;48.954;8.928;2023-07-13T10:33:09;1.30;;;0.60;;
5343;SDS011;2694;48.954;8.928;2023-07-13T10:35:38;8.02;;;0.80;;
5343;SDS011;2694;48.954;8.928;2023-07-13T10:38:11;4.93;;;1.00;;
5343;SDS011;2694;48.954;8.928;2023-07-13T10:40:41;1.50;;;0.70;;
5343;SDS011;2694;48.954;8.928;2023-07-13T10:43:13;3.33;;;0.60;;
5343;SDS011;2694;48.954;8.928;2023-07-13T10:45:46;7.70;;;0.90;;
5343;SDS011;2694;48.954;8.928;2023-07-13T10:48:15;3.67;;;0.70;;
5343;SDS011;2694;48.954;8.928;2023-07-13T10:50:44;7.80;;;1.20;;
5343;SDS011;2694;48.954;8.928;2023-07-13T10:53:19;2.20;;;0.75;;
5343;SDS011;2694;48.954;8.928;2023-07-13T10:55:55;2.63;;;0.60;;
5343;SDS011;2694;48.954;8.928;2023-07-13T10:58:28;2.43;;;0.90;;
5343;SDS011;2694;48.954;8.928;2023-07-13T11:01:02;4.72;;;1.15;;
5343;SDS011;2694;48.954;8.928;2023-07-13T11:03:35;3.20;;;0.70;;
5343;SDS011;2694;48.954;8.928;2023-07-13T11:06:05;3.95;;;0.90;;
5343;SDS011;2694;48.954;8.928;2023-07-13T11:08:37;3.53;;;1.00;;
5343;SDS011;2694;48.954;8.928;2023-07-13T11:11:33;2.47;;;0.98;;
5343;SDS011;2694;48.954;8.928;2023-07-13T11:14:03;5.28;;;1.00;;
5343;SDS011;2694;48.954;8.928;2023-07-13T11:16:34;4.10;;;0.90;;
5343;SDS011;2694;48.954;8.928;2023-07-13T11:19:23;3.90;;;0.88;;
5343;SDS011;2694;48.954;8.928;2023-07-13T11:22:22;4.35;;;0.70;;
5343;SDS011;2694;48.954;8.928;2023-07-13T11:24:53;5.23;;;1.07;;
5343;SDS011;2694;48.954;8.928;2023-07-13T11:27:31;2.55;;;0.70;;
5343;SDS011;2694;48.954;8.928;2023-07-13T11:30:20;4.78;;;1.00;;
5343;SDS011;2694;48.954;8.928;2023-07-13T11:32:50;3.42;;;0.93;;
5343;SDS011;2694;48.954;8.928;2023-07-13T11:35:46;2.78;;;0.90;;
5343;SDS011;2694;48.954;8.928;2023-07-13T11:38:20;5.40;;;0.80;;
5343;SDS011;2694;48.954;8.928;2023-07-13T11:40:50;4.65;;;0.80;;
5343;SDS011;2694;48.954;8.928;2023-07-13T11:43:20;1.73;;;0.60;;
5343;SDS011;2694;48.954;8.928;2023-07-13T11:45:49;5.00;;;0.90;;
5343;SDS011;2694;48.954;8.928;2023-07-13T11:48:26;3.03;;;0.68;;
5343;SDS011;2694;48.954;8.928;2023-07-13T11:50:58;2.63;;;0.68;;
5343;SDS011;2694;48.954;8.928;2023-07-13T11:53:32;2.70;;;0.80;;
5343;SDS011;2694;48.954;8.928;2023-07-13T11:56:05;2.65;;;0.63;;
5343;SDS011;2694;48.954;8.928;2023-07-13T11:58:33;3.95;;;0.80;;
5343;SDS011;2694;48.954;8.928;2023-07-13T12:01:01;2.80;;;0.60;;
5343;SDS011;2694;48.954;8.928;2023-07-13T12:03:30;2.80;;;0.50;;
5343;SDS011;2694;48.954;8.928;2023-07-13T12:06:00;5.43;;;0.88;;
5343;SDS011;2694;48.954;8.928;2023-07-13T12:08:30;4.90;;;0.90;;
5343;SDS011;2694;48.954;8.928;2023-07-13T12:11:02;2.92;;;0.90;;
5343;SDS011;2694;48.954;8.928;2023-07-13T12:13:36;2.60;;;1.08;;
5343;SDS011;2694;48.954;8.928;2023-07-13T12:16:14;1.13;;;0.60;;
5343;SDS011;2694;48.954;8.928;2023-07-13T12:18:43;3.00;;;0.80;;
5343;SDS011;2694;48.954;8.928;2023-07-13T12:21:16;4.10;;;0.70;;
5343;SDS011;2694;48.954;8.928;2023-07-13T12:23:46;2.60;;;0.90;;
5343;SDS011;2694;48.954;8.928;2023-07-13T12:26:15;3.33;;;1.00;;
5343;SDS011;2694;48.954;8.928;2023-07-13T12:28:46;1.90;;;0.70;;
5343;SDS011;2694;48.954;8.928;2023-07-13T12:31:24;3.20;;;1.00;;
5343;SDS011;2694;48.954;8.928;2023-07-13T12:33:56;1.63;;;0.80;;
5343;SDS011;2694;48.954;8.928;2023-07-13T12:36:24;3.37;;;1.00;;
5343;SDS011;2694;48.954;8.928;2023-07-13T12:38:52;5.40;;;0.90;;
5343;SDS011;2694;48.954;8.928;2023-07-13T12:41:19;3.00;;;0.73;;
5343;SDS011;2694;48.954;8.928;2023-07-13T12:43:49;3.85;;;0.70;;
5343;SDS011;2694;48.954;8.928;2023-07-13T12:46:17;3.20;;;0.70;;
5343;SDS011;2694;48.954;8.928;2023-07-13T12:48:48;1.88;;;0.70;;
5343;SDS011;2694;48.954;8.928;2023-07-13T12:51:16;4.85;;;0.90;;
5343;SDS011;2694;48.954;8.928;2023-07-13T12:53:49;4.30;;;0.70;;
5343;SDS011;2694;48.954;8.928;2023-07-13T12:56:21;3.05;;;0.70;;
5343;SDS011;2694;48.954;8.928;2023-07-13T12:58:54;3.00;;;0.70;;
5343;SDS011;2694;48.954;8.928;2023-07-13T13:01:25;2.30;;;0.80;;
5343;SDS011;2694;48.954;8.928;2023-07-13T13:03:54;2.10;;;0.70;;
5343;SDS011;2694;48.954;8.928;2023-07-13T13:06:22;1.95;;;0.90;;
5343;SDS011;2694;48.954;8.928;2023-07-13T13:08:52;2.23;;;0.60;;
5343;SDS011;2694;48.954;8.928;2023-07-13T13:11:21;5.88;;;1.00;;
5343;SDS011;2694;48.954;8.928;2023-07-13T13:13:49;2.75;;;0.80;;
5343;SDS011;2694;48.954;8.928;2023-07-13T13:16:20;7.07;;;1.10;;
5343;SDS011;2694;48.954;8.928;2023-07-13T13:18:50;5.80;;;0.90;;
5343;SDS011;2694;48.954;8.928;2023-07-13T13:21:18;4.53;;;0.80;;
5343;SDS011;2694;48.954;8.928;2023-07-13T13:23:45;3.00;;;0.80;;
5343;SDS011;2694;48.954;8.928;2023-07-13T13:26:13;4.90;;;0.90;;
5343;SDS011;2694;48.954;8.928;2023-07-13T13:28:41;3.10;;;0.90;;
5343;SDS011;2694;48.954;8.928;2023-07-13T13:31:10;5.57;;;1.55;;
5343;SDS011;2694;48.954;8.928;2023-07-13T13:33:39;3.15;;;0.80;;
5343;SDS011;2694;48.954;8.928;2023-07-13T13:36:12;3.92;;;0.80;;
5343;SDS011;2694;48.954;8.928;2023-07-13T13:38:42;5.20;;;1.05;;
5343;SDS011;2694;48.954;8.928;2023-07-13T13:41:10;3.47;;;0.80;;
5343;SDS011;2694;48.954;8.928;2023-07-13T13:43:39;1.88;;;0.80;;
5343;SDS011;2694;48.954;8.928;2023-07-13T13:46:13;3.60;;;1.00;;
5343;SDS011;2694;48.954;8.928;2023-07-13T13:48:42;4.45;;;1.50;;
5343;SDS011;2694;48.954;8.928;2023-07-13T13:51:14;1.88;;;0.70;;
5343;SDS011;2694;48.954;8.928;2023-07-13T13:53:43;4.72;;;1.20;;
5343;SDS011;2694;48.954;8.928;2023-07-13T13:56:10;3.65;;;0.90;;
5343;SDS011;2694;48.954;8.928;2023-07-13T13:58:38;2.75;;;1.00;;
5343;SDS011;2694;48.954;8.928;2023-07-13T14:01:08;2.50;;;0.75;;
5343;SDS011;2694;48.954;8.928;2023-07-13T14:03:42;3.42;;;1.13;;
5343;SDS011;2694;48.954;8.928;2023-07-13T14:06:11;3.60;;;1.10;;
5343;SDS011;2694;48.954;8.928;2023-07-13T14:08:39;2.85;;;0.90;;
5343;SDS011;2694;48.954;8.928;2023-07-13T14:11:07;2.90;;;1.10;;
5343;SDS011;2694;48.954;8.928;2023-07-13T14:13:38;3.70;;;0.85;;
5343;SDS011;2694;48.954;8.928;2023-07-13T14:16:09;3.05;;;1.00;;
5343;SDS011;2694;48.954;8.928;2023-07-13T14:18:39;5.10;;;1.10;;
5343;SDS011;2694;48.954;8.928;2023-07-13T14:21:11;3.13;;;0.85;;
5343;SDS011;2694;48.954;8.928;2023-07-13T14:23:39;1.87;;;0.70;;
5343;SDS011;2694;48.954;8.928;2023-07-13T14:26:10;2.35;;;1.10;;
5343;SDS011;2694;48.954;8.928;2023-07-13T14:28:41;4.60;;;0.85;;
5343;SDS011;2694;48.954;8.928;2023-07-13T14:31:10;3.90;;;1.00;;
5343;SDS011;2694;48.954;8.928;2023-07-13T14:33:38;5.15;;;1.20;;
5343;SDS011;2694;48.954;8.928;2023-07-13T14:36:09;4.05;;;1.13;;
5343;SDS011;2694;48.954;8.928;2023-07-13T14:38:49;4.80;;;1.00;;
5343;SDS011;2694;48.954;8.928;2023-07-13T14:41:16;3.40;;;1.00;;
5343;SDS011;2694;48.954;8.928;2023-07-13T14:43:43;4.75;;;1.00;;
5343;SDS011;2694;48.954;8.928;2023-07-13T14:46:11;6.90;;;1.30;;
5343;SDS011;2694;48.954;8.928;2023-07-13T14:48:48;2.78;;;0.90;;
5343;SDS011;2694;48.954;8.928;2023-07-13T14:51:15;5.68;;;1.17;;
5343;SDS011;2694;48.954;8.928;2023-07-13T14:53:42;5.82;;;1.00;;
5343;SDS011;2694;48.954;8.928;2023-07-13T14:56:10;3.58;;;0.80;;
5343;SDS011;2694;48.954;8.928;2023-07-13T14:58:37;5.85;;;1.00;;
5343;SDS011;2694;48.954;8.928;2023-07-13T15:01:07;5.47;;;1.20;;
5343;SDS011;2694;48.954;8.928;2023-07-13T15:03:39;2.53;;;0.63;;
5343;SDS011;2694;48.954;8.928;2023-07-13T15:06:12;4.60;;;0.80;;
5343;SDS011;2694;48.954;8.928;2023-07-13T15:08:40;2.33;;;0.77;;
5343;SDS011;2694;48.954;8.928;2023-07-13T15:11:07;5.90;;;1.60;;
5343;SDS011;2694;48.954;8.928;2023-07-13T15:13:36;4.03;;;1.40;;
5343;SDS011;2694;48.954;8.928;2023-07-13T15:16:04;2.15;;;0.90;;
5343;SDS011;2694;48.954;8.928;2023-07-13T15:18:36;4.13;;;1.10;;
5343;SDS011;2694;48.954;8.928;2023-07-13T15:21:07;5.70;;;0.90;;
5343;SDS011;2694;48.954;8.928;2023-07-13T15:23:37;4.30;;;1.38;;
5343;SDS011;2694;48.954;8.928;2023-07-13T15:26:04;2.92;;;0.80;;
5343;SDS011;2694;48.954;8.928;2023-07-13T15:28:31;2.63;;;0.80;;